createdAt,value
2023-05-24T00:01:42.686Z,2.00
2023-05-24T00:06:45.900Z,2.33
2023-05-24T00:11:48.959Z,1.98
2023-05-24T00:16:52.576Z,2.00
2023-05-24T00:21:56.146Z,1.80
2023-05-24T00:26:59.110Z,1.80
2023-05-24T00:32:02.844Z,1.83
2023-05-24T00:37:06.187Z,1.90
2023-05-24T00:42:09.214Z,2.05
2023-05-24T00:47:12.364Z,1.60
2023-05-24T00:52:15.777Z,1.40
2023-05-24T00:57:19.494Z,1.45
2023-05-24T01:02:25.864Z,1.20
2023-05-24T01:07:39.371Z,1.40
2023-05-24T01:13:14.018Z,1.70
2023-05-24T01:18:51.095Z,0.90
2023-05-24T01:24:26.326Z,0.80
2023-05-24T01:29:30.615Z,1.30
2023-05-24T01:34:34.687Z,1.20
2023-05-24T01:39:37.854Z,0.98
2023-05-24T01:44:56.872Z,0.52
2023-05-24T01:50:10.898Z,1.33
2023-05-24T01:55:19.142Z,1.03
2023-05-24T02:00:22.517Z,0.90
2023-05-24T02:05:26.776Z,0.90
2023-05-24T02:10:30.163Z,0.75
2023-05-24T02:15:33.394Z,0.75
2023-05-24T02:20:39.949Z,0.80
2023-05-24T02:25:43.158Z,0.88
2023-05-24T02:30:46.410Z,0.75
2023-05-24T02:35:49.638Z,1.00
2023-05-24T02:40:52.697Z,0.82
2023-05-24T02:45:55.961Z,0.82
2023-05-24T02:50:59.101Z,0.80
2023-05-24T02:56:02.017Z,0.50
2023-05-24T03:06:11.266Z,0.80
2023-05-24T03:11:14.380Z,0.90
2023-05-24T03:16:17.702Z,1.10
2023-05-24T03:21:23.870Z,0.30
2023-05-24T03:26:27.436Z,0.75
2023-05-24T03:31:30.572Z,0.52
2023-05-24T03:36:34.485Z,0.80
2023-05-24T03:41:37.582Z,0.40
2023-05-24T03:46:40.838Z,0.70
2023-05-24T03:51:44.049Z,0.80
2023-05-24T03:56:47.085Z,0.98
2023-05-24T04:01:50.191Z,0.90
2023-05-24T04:06:54.354Z,0.90
2023-05-24T04:11:57.462Z,0.70
2023-05-24T04:17:00.563Z,0.50
2023-05-24T04:22:03.976Z,0.82
2023-05-24T04:27:07.719Z,0.40
2023-05-24T04:32:10.692Z,1.02
2023-05-24T04:37:17.594Z,0.82
2023-05-24T04:42:22.640Z,0.60
2023-05-24T04:47:25.913Z,1.02
2023-05-24T04:52:28.915Z,0.50
2023-05-24T04:57:32.030Z,0.75
2023-05-24T05:02:35.518Z,0.85
2023-05-24T05:07:38.870Z,0.50
2023-05-24T05:12:42.029Z,0.63
2023-05-24T05:17:45.023Z,0.60
2023-05-24T05:22:48.980Z,0.70
2023-05-24T05:27:52.029Z,0.55
2023-05-24T05:32:55.986Z,0.80
2023-05-24T05:37:59.042Z,0.70
2023-05-24T05:43:02.068Z,1.13
2023-05-24T05:48:05.031Z,1.00
2023-05-24T05:53:08.128Z,0.90
2023-05-24T05:58:12.397Z,0.77
2023-05-24T06:03:15.683Z,1.20
2023-05-24T06:08:19.372Z,0.60
2023-05-24T06:13:22.341Z,0.93
2023-05-24T06:18:27.142Z,0.82
2023-05-24T06:23:30.426Z,1.00
2023-05-24T06:28:33.381Z,0.40
2023-05-24T06:33:38.242Z,0.70
2023-05-24T06:38:41.696Z,0.70
2023-05-24T06:43:44.835Z,0.82
2023-05-24T06:48:47.995Z,0.90
2023-05-24T06:53:51.548Z,0.50
2023-05-24T06:58:54.533Z,0.75
2023-05-24T07:03:57.469Z,0.60
2023-05-24T07:09:02.407Z,0.63
2023-05-24T07:14:05.512Z,0.70
2023-05-24T07:19:08.582Z,0.70
2023-05-24T07:24:12.258Z,0.90
2023-05-24T07:29:28.691Z,0.50
2023-05-24T07:34:31.762Z,0.73
2023-05-24T07:39:34.738Z,0.63
2023-05-24T07:44:37.754Z,0.70
2023-05-24T07:49:40.830Z,0.50
2023-05-24T07:54:43.831Z,0.80
2023-05-24T07:59:46.831Z,0.50
2023-05-24T08:04:49.772Z,1.23
2023-05-24T08:09:53.201Z,0.50
2023-05-24T08:14:56.481Z,0.70
2023-05-24T08:19:59.543Z,0.70
2023-05-24T08:25:02.528Z,0.70
2023-05-24T08:30:08.885Z,0.70
2023-05-24T08:35:20.724Z,0.83
2023-05-24T08:40:25.589Z,0.82
2023-05-24T08:45:32.137Z,0.60
2023-05-24T08:50:35.794Z,0.70
2023-05-24T08:55:40.712Z,0.73
2023-05-24T09:00:43.782Z,1.45
2023-05-24T09:05:47.131Z,0.60
2023-05-24T09:10:55.517Z,0.82
2023-05-24T09:16:00.615Z,0.75
2023-05-24T09:21:03.872Z,0.60
2023-05-24T09:26:10.799Z,0.57
2023-05-24T09:31:14.377Z,1.00
2023-05-24T09:36:17.910Z,0.70
2023-05-24T09:41:21.260Z,0.98
2023-05-24T09:46:24.532Z,0.90
2023-05-24T09:51:27.750Z,0.77
2023-05-24T09:56:31.466Z,0.70
2023-05-24T10:01:36.415Z,0.50
2023-05-24T10:06:40.915Z,0.75
2023-05-24T10:11:45.360Z,0.95
2023-05-24T10:16:48.825Z,0.83
2023-05-24T10:21:54.238Z,1.20
2023-05-24T10:32:01.075Z,1.02
2023-05-24T10:37:04.255Z,0.52
2023-05-24T10:42:09.758Z,0.50
2023-05-24T10:47:14.567Z,1.38
2023-05-24T10:52:17.800Z,0.43
2023-05-24T10:57:24.969Z,0.70
2023-05-24T11:02:28.822Z,0.90
2023-05-24T11:07:33.823Z,0.70
2023-05-24T11:12:39.410Z,1.05
2023-05-24T11:18:10.199Z,1.30
2023-05-24T11:23:15.356Z,0.60
2023-05-24T11:28:18.920Z,0.93
2023-05-24T11:33:24.613Z,0.70
2023-05-24T11:38:27.949Z,1.10
2023-05-24T11:43:32.084Z,0.70
2023-05-24T11:48:35.424Z,0.88
2023-05-24T11:53:38.377Z,0.82
2023-05-24T11:58:50.664Z,1.20
2023-05-24T12:03:55.188Z,0.85
2023-05-24T12:08:58.668Z,0.98
2023-05-24T12:14:01.672Z,1.40
2023-05-24T12:19:11.580Z,0.60
2023-05-24T12:24:18.771Z,0.77
2023-05-24T12:29:21.790Z,0.60
2023-05-24T12:34:25.376Z,0.70
2023-05-24T12:39:36.298Z,0.98
2023-05-24T12:44:39.664Z,0.68
2023-05-24T12:49:43.877Z,0.80
2023-05-24T12:54:47.203Z,1.13
2023-05-24T12:59:50.648Z,1.48
2023-05-24T13:04:53.872Z,1.90
2023-05-24T13:09:57.143Z,1.33
2023-05-24T13:15:00.416Z,1.10
2023-05-24T13:20:07.285Z,1.70
2023-05-24T13:25:11.875Z,1.60
2023-05-24T13:30:15.040Z,1.50
2023-05-24T13:35:18.352Z,1.15
2023-05-24T13:40:21.653Z,1.08
2023-05-24T13:45:25.303Z,1.20
2023-05-24T13:50:28.279Z,2.40
2023-05-24T13:55:32.949Z,1.90
2023-05-24T14:00:36.545Z,1.50
2023-05-24T14:05:40.960Z,1.65
2023-05-24T14:10:44.393Z,2.08
2023-05-24T14:15:47.542Z,1.92
2023-05-24T14:20:50.556Z,2.30
2023-05-24T14:25:53.737Z,2.63
2023-05-24T14:30:56.601Z,2.78
2023-05-24T14:36:00.072Z,2.47
2023-05-24T14:41:06.587Z,2.42
2023-05-24T14:46:12.425Z,3.20
2023-05-24T14:51:15.607Z,4.38
2023-05-24T14:56:18.708Z,3.58
2023-05-24T15:01:22.034Z,3.92
2023-05-24T15:06:25.112Z,3.50
2023-05-24T15:11:28.158Z,4.03
2023-05-24T15:16:31.479Z,3.28
2023-05-24T15:21:34.584Z,3.33
2023-05-24T15:26:37.789Z,4.65
2023-05-24T15:31:41.241Z,5.82
2023-05-24T15:36:46.244Z,10.68
2023-05-24T15:41:49.323Z,7.07
2023-05-24T15:46:53.007Z,6.20
2023-05-24T15:52:04.413Z,6.68
2023-05-24T15:57:08.212Z,8.18
2023-05-24T16:02:11.890Z,6.68
2023-05-24T16:07:14.894Z,7.15
2023-05-24T16:12:18.508Z,7.63
2023-05-24T16:17:21.840Z,6.53
2023-05-24T16:22:25.101Z,4.68
2023-05-24T16:27:28.062Z,3.92
2023-05-24T16:32:31.088Z,4.07
2023-05-24T16:37:34.956Z,5.15
2023-05-24T16:42:37.898Z,4.82
2023-05-24T16:47:41.136Z,5.22
2023-05-24T16:52:45.106Z,5.60
2023-05-24T16:57:48.218Z,5.68
2023-05-24T17:02:51.281Z,6.13
2023-05-24T17:07:55.579Z,5.97
2023-05-24T17:12:58.408Z,6.30
2023-05-24T17:18:01.399Z,6.60
2023-05-24T17:23:04.443Z,5.55
2023-05-24T17:28:07.490Z,4.93
2023-05-24T17:33:10.521Z,4.25
2023-05-24T17:38:13.818Z,4.32
2023-05-24T17:43:16.950Z,4.30
2023-05-24T17:48:19.945Z,4.75
2023-05-24T17:53:31.226Z,4.10
2023-05-24T17:58:38.320Z,3.40
2023-05-24T18:03:42.049Z,3.58
2023-05-24T18:08:45.126Z,3.63
2023-05-24T18:13:48.031Z,3.40
2023-05-24T18:18:51.032Z,5.88
2023-05-24T18:23:54.029Z,6.90
2023-05-24T18:28:57.220Z,3.60
2023-05-24T18:34:01.727Z,3.42
2023-05-24T18:39:05.266Z,2.88
2023-05-24T18:44:10.950Z,3.28
2023-05-24T18:49:15.824Z,3.38
2023-05-24T18:54:18.744Z,2.63
2023-05-24T18:59:24.828Z,2.70
2023-05-24T19:04:28.539Z,2.30
2023-05-24T19:09:31.652Z,2.70
2023-05-24T19:14:34.704Z,3.00
2023-05-24T19:19:37.755Z,2.90
2023-05-24T19:24:40.577Z,2.90
2023-05-24T19:29:43.567Z,3.13
2023-05-24T19:34:46.704Z,3.45
2023-05-24T19:39:49.779Z,3.15
2023-05-24T19:44:52.931Z,3.25
2023-05-24T19:49:56.038Z,3.58
2023-05-24T19:54:59.015Z,2.53
2023-05-24T20:00:02.083Z,3.00
2023-05-24T20:05:14.511Z,3.00
2023-05-24T20:10:17.352Z,3.72
2023-05-24T20:15:20.288Z,3.50
2023-05-24T20:20:23.743Z,3.30
2023-05-24T20:25:27.478Z,3.30
2023-05-24T20:30:30.784Z,3.85
2023-05-24T20:35:33.714Z,4.10
2023-05-24T20:40:36.668Z,2.00
2023-05-24T20:45:39.597Z,1.48
2023-05-24T20:50:42.667Z,1.17
2023-05-24T20:55:45.944Z,1.10
2023-05-24T21:00:49.149Z,1.00
2023-05-24T21:05:52.105Z,0.73
2023-05-24T21:10:56.889Z,1.02
2023-05-24T21:16:02.609Z,0.73
2023-05-24T21:21:07.049Z,0.80
2023-05-24T21:26:09.945Z,1.00
2023-05-24T21:31:13.127Z,0.80
2023-05-24T21:36:16.262Z,0.80
2023-05-24T21:41:19.249Z,1.17
2023-05-24T21:46:22.110Z,1.35
2023-05-24T21:51:24.990Z,1.08
2023-05-24T21:56:28.094Z,0.95
2023-05-24T22:01:31.143Z,0.70
2023-05-24T22:06:34.080Z,1.80
2023-05-24T22:11:37.161Z,1.00
2023-05-24T22:16:41.712Z,2.15
2023-05-24T22:21:46.269Z,1.43
2023-05-24T22:26:50.331Z,2.27
2023-05-24T22:31:53.192Z,2.55
2023-05-24T22:36:57.901Z,2.42
2023-05-24T22:42:00.765Z,3.40
2023-05-24T22:47:03.820Z,4.10
2023-05-24T22:52:07.383Z,5.70
2023-05-24T22:57:10.271Z,5.07
2023-05-24T23:02:13.391Z,4.78
2023-05-24T23:07:16.523Z,6.85
2023-05-24T23:12:21.358Z,8.07
2023-05-24T23:17:24.354Z,9.82
2023-05-24T23:22:27.257Z,11.90
2023-05-24T23:27:30.826Z,13.23
2023-05-24T23:32:34.055Z,12.00
2023-05-24T23:37:36.883Z,12.57
2023-05-24T23:42:39.883Z,14.23
2023-05-24T23:47:42.777Z,12.95
2023-05-24T23:52:46.334Z,13.73
2023-05-24T23:57:49.840Z,13.68
